createdAt,value
2023-07-08T00:01:38.245Z,5.16
2023-07-08T00:04:10.715Z,4.99
2023-07-08T00:06:43.084Z,5.02
2023-07-08T00:09:16.778Z,5.31
2023-07-08T00:11:52.616Z,4.94
2023-07-08T00:14:24.879Z,4.96
2023-07-08T00:16:59.164Z,4.81
2023-07-08T00:19:32.428Z,4.44
2023-07-08T00:22:04.794Z,4.78
2023-07-08T00:24:37.008Z,5.19
2023-07-08T00:27:16.350Z,5.04
2023-07-08T00:29:48.980Z,4.99
2023-07-08T00:32:21.477Z,4.91
2023-07-08T00:34:53.801Z,5.01
2023-07-08T00:37:30.989Z,4.78
2023-07-08T00:40:04.050Z,4.86
2023-07-08T00:42:39.132Z,4.81
2023-07-08T00:45:25.772Z,4.96
2023-07-08T00:48:00.991Z,4.94
2023-07-08T00:50:33.395Z,4.94
2023-07-08T00:53:31.621Z,5.28
2023-07-08T00:56:09.002Z,4.89
2023-07-08T00:58:50.447Z,4.86
2023-07-08T01:01:23.428Z,4.95
2023-07-08T01:04:02.616Z,5.13
2023-07-08T01:06:41.915Z,5.05
2023-07-08T01:09:19.242Z,4.94
2023-07-08T01:11:52.467Z,5.10
2023-07-08T01:14:32.776Z,4.76
2023-07-08T01:17:05.897Z,5.31
2023-07-08T01:19:39.453Z,4.94
2023-07-08T01:22:15.512Z,5.26
2023-07-08T01:24:50.433Z,4.70
2023-07-08T01:27:24.946Z,5.29
2023-07-08T01:29:57.331Z,5.12
2023-07-08T01:32:31.698Z,5.06
2023-07-08T01:35:07.768Z,5.14
2023-07-08T01:37:46.914Z,5.20
2023-07-08T01:40:31.285Z,4.91
2023-07-08T01:43:06.925Z,5.38
2023-07-08T01:45:46.196Z,5.26
2023-07-08T01:48:21.908Z,5.34
2023-07-08T01:51:01.699Z,4.96
2023-07-08T01:53:39.651Z,4.81
2023-07-08T01:56:13.433Z,5.35
2023-07-08T01:58:46.616Z,5.06
2023-07-08T02:01:18.998Z,5.10
2023-07-08T02:03:51.323Z,5.27
2023-07-08T02:06:23.652Z,5.26
2023-07-08T02:09:00.340Z,4.91
2023-07-08T02:11:35.710Z,5.31
2023-07-08T02:14:08.817Z,5.30
2023-07-08T02:16:41.361Z,5.25
2023-07-08T02:19:14.035Z,5.33
2023-07-08T02:21:46.401Z,5.14
2023-07-08T02:24:21.252Z,5.12
2023-07-08T02:26:54.075Z,5.04
2023-07-08T02:29:26.457Z,5.06
2023-07-08T02:31:58.788Z,5.15
2023-07-08T02:34:31.058Z,5.38
2023-07-08T02:37:03.641Z,5.66
2023-07-08T02:39:39.246Z,5.37
2023-07-08T02:42:11.599Z,5.29
2023-07-08T02:44:43.945Z,5.86
2023-07-08T02:47:16.337Z,5.83
2023-07-08T02:49:48.976Z,5.52
2023-07-08T02:52:21.368Z,5.62
2023-07-08T02:54:56.416Z,5.32
2023-07-08T02:57:28.774Z,5.56
2023-07-08T03:00:01.089Z,5.51
2023-07-08T03:02:33.393Z,5.43
2023-07-08T03:05:06.460Z,5.51
2023-07-08T03:07:38.731Z,5.56
2023-07-08T03:10:14.294Z,5.58
2023-07-08T03:12:46.613Z,5.46
2023-07-08T03:15:19.300Z,5.59
2023-07-08T03:17:51.719Z,5.78
2023-07-08T03:20:24.040Z,5.92
2023-07-08T03:22:56.368Z,5.83
2023-07-08T03:25:31.350Z,5.34
2023-07-08T03:28:03.654Z,5.56
2023-07-08T03:30:35.860Z,5.54
2023-07-08T03:33:08.233Z,5.45
2023-07-08T03:35:40.811Z,5.46
2023-07-08T03:38:13.133Z,5.66
2023-07-08T03:40:48.396Z,5.81
2023-07-08T03:43:20.722Z,5.48
2023-07-08T03:45:53.336Z,5.76
2023-07-08T03:48:25.609Z,5.72
2023-07-08T03:50:58.127Z,5.83
2023-07-08T03:53:30.619Z,5.81
2023-07-08T03:56:05.965Z,5.63
2023-07-08T03:58:38.247Z,5.77
2023-07-08T04:01:16.676Z,5.70
2023-07-08T04:03:49.862Z,5.58
2023-07-08T04:06:22.485Z,6.13
2023-07-08T04:08:55.196Z,6.14
2023-07-08T04:11:30.178Z,6.07
2023-07-08T04:14:02.555Z,5.94
2023-07-08T04:16:47.210Z,5.99
2023-07-08T04:19:20.932Z,5.75
2023-07-08T04:21:53.333Z,6.28
2023-07-08T04:24:25.667Z,6.04
2023-07-08T04:27:01.050Z,6.13
2023-07-08T04:29:33.391Z,6.11
2023-07-08T04:32:05.967Z,6.16
2023-07-08T04:34:38.329Z,6.82
2023-07-08T04:37:10.974Z,6.11
2023-07-08T04:39:43.391Z,5.92
2023-07-08T04:42:19.751Z,6.28
2023-07-08T04:44:53.196Z,6.36
2023-07-08T04:47:25.549Z,6.21
2023-07-08T04:49:57.924Z,5.87
2023-07-08T04:52:30.219Z,6.16
2023-07-08T04:55:02.525Z,6.54
2023-07-08T04:57:37.385Z,6.22
2023-07-08T05:00:12.736Z,6.37
2023-07-08T05:02:45.061Z,6.18
2023-07-08T05:05:17.568Z,6.48
2023-07-08T05:07:50.709Z,6.31
2023-07-08T05:10:23.413Z,6.48
2023-07-08T05:12:58.190Z,6.62
2023-07-08T05:15:30.764Z,6.21
2023-07-08T05:18:03.070Z,6.14
2023-07-08T05:20:37.985Z,6.21
2023-07-08T05:23:10.254Z,6.37
2023-07-08T05:25:42.680Z,6.40
2023-07-08T05:28:17.595Z,6.17
2023-07-08T05:30:49.885Z,6.36
2023-07-08T05:33:22.199Z,6.45
2023-07-08T05:35:55.064Z,6.19
2023-07-08T05:38:28.429Z,6.28
2023-07-08T05:41:03.132Z,6.20
2023-07-08T05:43:38.343Z,6.09
2023-07-08T05:46:12.829Z,6.06
2023-07-08T05:48:45.570Z,6.02
2023-07-08T05:51:17.851Z,6.11
2023-07-08T05:53:50.132Z,6.04
2023-07-08T05:56:22.638Z,5.92
2023-07-08T05:58:57.609Z,5.96
2023-07-08T06:01:30.096Z,6.06
2023-07-08T06:04:03.105Z,5.87
2023-07-08T06:06:35.855Z,5.79
2023-07-08T06:09:08.227Z,6.00
2023-07-08T06:11:40.498Z,5.83
2023-07-08T06:14:15.471Z,5.72
2023-07-08T06:16:47.871Z,5.69
2023-07-08T06:19:20.388Z,5.81
2023-07-08T06:21:52.648Z,5.94
2023-07-08T06:24:24.997Z,5.81
2023-07-08T06:26:59.599Z,5.76
2023-07-08T06:29:34.717Z,5.71
2023-07-08T06:32:07.463Z,5.86
2023-07-08T06:34:39.836Z,5.84
2023-07-08T06:37:12.346Z,5.22
2023-07-08T06:39:44.690Z,5.36
2023-07-08T06:42:16.985Z,5.73
2023-07-08T06:44:53.828Z,5.44
2023-07-08T06:47:27.120Z,5.56
2023-07-08T06:49:59.823Z,5.64
2023-07-08T06:52:35.545Z,5.31
2023-07-08T06:55:11.090Z,5.61
2023-07-08T06:57:43.441Z,5.28
2023-07-08T07:00:19.023Z,5.44
2023-07-08T07:02:51.314Z,5.23
2023-07-08T07:05:23.908Z,5.61
2023-07-08T07:07:57.581Z,5.48
2023-07-08T07:10:30.023Z,5.59
2023-07-08T07:13:02.295Z,5.39
2023-07-08T07:15:37.341Z,5.59
2023-07-08T07:18:10.484Z,5.31
2023-07-08T07:20:43.456Z,5.70
2023-07-08T07:23:15.701Z,5.68
2023-07-08T07:25:48.692Z,5.48
2023-07-08T07:28:21.644Z,5.42
2023-07-08T07:31:02.343Z,5.48
2023-07-08T07:33:35.477Z,5.42
2023-07-08T07:36:08.256Z,5.87
2023-07-08T07:38:40.524Z,5.80
2023-07-08T07:41:14.112Z,5.75
2023-07-08T07:43:46.417Z,5.82
2023-07-08T07:46:22.031Z,5.85
2023-07-08T07:48:55.065Z,6.01
2023-07-08T07:51:27.370Z,5.84
2023-07-08T07:53:59.744Z,5.44
2023-07-08T07:56:32.124Z,5.75
2023-07-08T07:59:04.406Z,5.75
2023-07-08T08:01:43.282Z,5.66
2023-07-08T08:04:16.625Z,5.41
2023-07-08T08:06:48.874Z,5.76
2023-07-08T08:09:21.131Z,5.65
2023-07-08T08:11:56.477Z,5.54
2023-07-08T08:14:28.910Z,5.38
2023-07-08T08:17:04.012Z,5.72
2023-07-08T08:19:36.376Z,5.51
2023-07-08T08:22:09.084Z,5.78
2023-07-08T08:24:41.431Z,5.74
2023-07-08T08:27:13.749Z,5.82
2023-07-08T08:29:46.307Z,5.70
2023-07-08T08:32:21.242Z,5.89
2023-07-08T08:34:53.483Z,5.94
2023-07-08T08:37:25.739Z,5.85
2023-07-08T08:39:58.035Z,5.68
2023-07-08T08:42:34.562Z,6.01
2023-07-08T08:45:10.235Z,6.15
2023-07-08T08:47:50.062Z,6.11
2023-07-08T08:50:36.242Z,6.06
2023-07-08T08:53:16.501Z,5.66
2023-07-08T08:55:54.478Z,6.01
2023-07-08T08:58:38.239Z,6.11
2023-07-08T09:01:17.073Z,5.74
2023-07-08T09:03:57.435Z,6.47
2023-07-08T09:06:32.943Z,6.15
2023-07-08T09:09:17.679Z,6.49
2023-07-08T09:12:01.394Z,6.06
2023-07-08T09:14:38.103Z,6.09
2023-07-08T09:17:28.177Z,6.04
2023-07-08T09:20:18.290Z,6.44
2023-07-08T09:22:59.948Z,6.09
2023-07-08T09:25:38.668Z,6.27
2023-07-08T09:28:13.506Z,6.06
2023-07-08T09:30:48.148Z,6.48
2023-07-08T09:33:20.501Z,6.21
2023-07-08T09:35:55.571Z,6.58
2023-07-08T09:38:28.345Z,6.22
2023-07-08T09:41:00.957Z,6.34
2023-07-08T09:43:39.785Z,6.59
2023-07-08T09:46:17.998Z,6.91
2023-07-08T09:48:50.278Z,6.71
2023-07-08T09:51:26.376Z,6.96
2023-07-08T09:53:58.638Z,6.76
2023-07-08T09:56:33.258Z,7.15
2023-07-08T09:59:06.296Z,6.89
2023-07-08T10:01:39.007Z,6.91
2023-07-08T10:04:11.403Z,6.84
2023-07-08T10:06:50.960Z,7.08
2023-07-08T10:09:28.354Z,7.01
2023-07-08T10:12:11.081Z,7.32
2023-07-08T10:14:50.473Z,6.91
2023-07-08T10:17:26.713Z,7.44
2023-07-08T10:19:59.056Z,7.47
2023-07-08T10:22:49.432Z,7.41
2023-07-08T10:25:35.580Z,7.01
2023-07-08T10:28:26.688Z,7.57
2023-07-08T10:31:12.148Z,7.36
2023-07-08T10:34:02.445Z,7.39
2023-07-08T10:36:54.782Z,7.42
2023-07-08T10:39:56.403Z,7.56
2023-07-08T10:42:48.516Z,7.76
2023-07-08T10:45:26.004Z,7.99
2023-07-08T10:48:21.276Z,8.11
2023-07-08T10:51:08.393Z,7.52
2023-07-08T10:53:59.313Z,7.66
2023-07-08T10:56:42.664Z,7.64
2023-07-08T10:59:35.728Z,7.58
2023-07-08T11:02:40.508Z,7.51
2023-07-08T11:05:33.945Z,7.30
2023-07-08T11:08:22.670Z,7.50
2023-07-08T11:11:14.368Z,7.50
2023-07-08T11:13:58.153Z,7.70
2023-07-08T11:16:39.425Z,7.28
2023-07-08T11:19:20.877Z,7.52
2023-07-08T11:21:57.211Z,7.21
2023-07-08T11:24:39.701Z,7.50
2023-07-08T11:27:20.461Z,7.48
2023-07-08T11:30:00.369Z,7.64
2023-07-08T11:32:36.317Z,7.02
2023-07-08T11:35:18.222Z,7.28
2023-07-08T11:37:51.838Z,7.70
2023-07-08T11:40:26.790Z,7.44
2023-07-08T11:43:09.196Z,7.31
2023-07-08T11:45:48.574Z,7.36
2023-07-08T11:48:26.459Z,7.32
2023-07-08T11:51:00.925Z,7.22
2023-07-08T11:53:51.779Z,7.34
2023-07-08T11:56:29.961Z,7.00
2023-07-08T11:59:21.034Z,7.10
2023-07-08T12:01:59.462Z,7.10
2023-07-08T12:04:36.567Z,7.04
2023-07-08T12:07:21.705Z,7.04
2023-07-08T12:10:03.456Z,7.33
2023-07-08T12:12:39.832Z,6.91
2023-07-08T12:15:20.592Z,7.16
2023-07-08T12:17:57.359Z,7.49
2023-07-08T12:20:34.730Z,7.24
2023-07-08T12:23:08.041Z,7.34
2023-07-08T12:25:40.880Z,7.29
2023-07-08T12:28:16.267Z,7.21
2023-07-08T12:30:51.103Z,7.29
2023-07-08T12:33:34.124Z,7.01
2023-07-08T12:36:08.982Z,7.44
2023-07-08T12:38:46.319Z,7.37
2023-07-08T12:41:23.553Z,7.12
2023-07-08T12:43:56.943Z,7.16
2023-07-08T12:46:29.937Z,7.24
2023-07-08T12:49:04.935Z,7.17
2023-07-08T12:51:37.191Z,6.86
2023-07-08T12:54:09.561Z,7.33
2023-07-08T12:56:43.879Z,7.24
2023-07-08T12:59:23.449Z,7.08
2023-07-08T13:01:58.088Z,6.94
2023-07-08T13:04:33.594Z,6.86
2023-07-08T13:07:07.674Z,7.05
2023-07-08T13:09:45.616Z,6.53
2023-07-08T13:12:26.057Z,6.86
2023-07-08T13:15:03.729Z,6.54
2023-07-08T13:17:38.628Z,6.90
2023-07-08T13:20:20.167Z,6.74
2023-07-08T13:22:59.129Z,6.61
2023-07-08T13:25:35.160Z,6.61
2023-07-08T13:28:29.135Z,6.23
2023-07-08T13:31:04.671Z,6.46
2023-07-08T13:33:39.404Z,6.29
2023-07-08T13:36:15.729Z,6.09
2023-07-08T13:38:49.365Z,6.25
2023-07-08T13:41:26.685Z,6.60
2023-07-08T13:44:00.193Z,6.03
2023-07-08T13:46:39.044Z,6.02
2023-07-08T13:49:20.218Z,5.95
2023-07-08T13:51:57.427Z,5.64
2023-07-08T13:54:38.038Z,5.64
2023-07-08T13:57:16.116Z,5.86
2023-07-08T13:59:48.390Z,5.56
2023-07-08T14:02:27.513Z,5.83
2023-07-08T14:05:01.656Z,5.41
2023-07-08T14:07:40.000Z,5.62
2023-07-08T14:10:16.498Z,5.55
2023-07-08T14:12:48.900Z,5.36
2023-07-08T14:15:21.277Z,5.06
2023-07-08T14:17:53.764Z,5.26
2023-07-08T14:20:31.300Z,5.34
2023-07-08T14:23:06.165Z,4.99
2023-07-08T14:25:38.552Z,5.08
2023-07-08T14:28:10.959Z,5.36
2023-07-08T14:30:49.158Z,5.35
2023-07-08T14:33:21.347Z,5.12
2023-07-08T14:35:54.787Z,4.89
2023-07-08T14:38:29.722Z,5.41
2023-07-08T14:41:02.339Z,5.18
2023-07-08T14:43:38.177Z,5.36
2023-07-08T14:46:14.665Z,5.51
2023-07-08T14:48:47.170Z,5.79
2023-07-08T14:51:19.452Z,5.59
2023-07-08T14:53:56.716Z,5.65
2023-07-08T14:56:30.858Z,5.76
2023-07-08T14:59:05.187Z,5.69
2023-07-08T15:01:37.857Z,5.68
2023-07-08T15:04:15.457Z,6.07
2023-07-08T15:06:48.940Z,5.73
2023-07-08T15:09:23.987Z,5.66
2023-07-08T15:11:56.352Z,5.80
2023-07-08T15:14:32.515Z,5.96
2023-07-08T15:17:04.980Z,6.14
2023-07-08T15:19:37.328Z,6.15
2023-07-08T15:22:10.047Z,6.01
2023-07-08T15:24:45.035Z,6.11
2023-07-08T15:27:18.961Z,6.03
2023-07-08T15:29:51.280Z,5.99
2023-07-08T15:32:40.473Z,5.83
2023-07-08T15:35:18.228Z,5.65
2023-07-08T15:37:52.191Z,5.91
2023-07-08T15:40:29.256Z,5.46
2023-07-08T15:43:06.762Z,5.55
2023-07-08T15:45:41.608Z,5.46
2023-07-08T15:48:18.433Z,5.45
2023-07-08T15:50:50.685Z,5.57
2023-07-08T15:53:22.920Z,5.73
2023-07-08T15:55:58.292Z,5.67
2023-07-08T15:58:35.202Z,6.04
2023-07-08T16:01:08.248Z,6.03
2023-07-08T16:03:42.351Z,5.72
2023-07-08T16:06:15.055Z,6.10
2023-07-08T16:08:48.168Z,6.29
2023-07-08T16:11:33.309Z,6.57
2023-07-08T16:14:05.773Z,6.36
2023-07-08T16:16:38.260Z,6.33
2023-07-08T16:19:10.603Z,6.56
2023-07-08T16:21:43.271Z,6.70
2023-07-08T16:24:15.598Z,7.34
2023-07-08T16:26:50.726Z,6.87
2023-07-08T16:29:23.283Z,6.56
2023-07-08T16:31:56.553Z,6.39
2023-07-08T16:34:28.910Z,6.52
2023-07-08T16:37:01.452Z,6.84
2023-07-08T16:39:33.781Z,6.64
2023-07-08T16:42:09.481Z,6.86
2023-07-08T16:44:42.957Z,7.01
2023-07-08T16:47:15.393Z,6.56
2023-07-08T16:49:47.741Z,7.28
2023-07-08T16:52:22.336Z,7.06
2023-07-08T16:54:55.066Z,7.24
2023-07-08T16:57:30.214Z,6.92
2023-07-08T17:00:02.529Z,7.03
2023-07-08T17:02:36.504Z,7.59
2023-07-08T17:05:23.889Z,7.23
2023-07-08T17:07:56.769Z,7.30
2023-07-08T17:10:29.447Z,7.24
2023-07-08T17:13:04.277Z,6.89
2023-07-08T17:15:38.186Z,6.97
2023-07-08T17:18:11.324Z,6.91
2023-07-08T17:20:44.914Z,6.80
2023-07-08T17:23:18.741Z,6.66
2023-07-08T17:25:51.128Z,6.49
2023-07-08T17:28:25.989Z,6.35
2023-07-08T17:30:58.541Z,6.28
2023-07-08T17:33:32.760Z,6.04
2023-07-08T17:36:06.028Z,6.13
2023-07-08T17:38:49.290Z,5.96
2023-07-08T17:41:24.093Z,5.91
2023-07-08T17:44:00.677Z,6.23
2023-07-08T17:46:34.109Z,6.31
2023-07-08T17:49:10.418Z,6.46
2023-07-08T17:51:42.773Z,6.58
2023-07-08T17:54:19.352Z,6.56
2023-07-08T17:56:55.032Z,6.84
2023-07-08T17:59:31.033Z,7.59
2023-07-08T18:02:03.434Z,7.48
2023-07-08T18:04:35.745Z,7.37
2023-07-08T18:07:08.714Z,7.36
2023-07-08T18:09:41.121Z,7.52
2023-07-08T18:12:15.756Z,7.29
2023-07-08T18:14:51.240Z,7.30
2023-07-08T18:17:24.205Z,7.29
2023-07-08T18:19:58.382Z,7.18
2023-07-08T18:22:30.825Z,7.39
2023-07-08T18:25:03.120Z,7.31
2023-07-08T18:27:35.938Z,7.77
2023-07-08T18:30:12.530Z,7.44
2023-07-08T18:32:45.386Z,7.79
2023-07-08T18:35:24.546Z,7.48
2023-07-08T18:37:58.417Z,7.84
2023-07-08T18:40:35.068Z,7.49
2023-07-08T18:43:11.480Z,7.54
2023-07-08T18:45:46.516Z,7.51
2023-07-08T18:48:20.687Z,7.46
2023-07-08T18:50:57.246Z,7.11
2023-07-08T18:53:29.833Z,6.95
2023-07-08T18:56:02.581Z,6.72
2023-07-08T18:58:35.113Z,7.03
2023-07-08T19:01:21.191Z,7.00
2023-07-08T19:03:53.713Z,6.94
2023-07-08T19:06:26.328Z,7.01
2023-07-08T19:08:58.644Z,6.95
2023-07-08T19:11:33.775Z,7.03
2023-07-08T19:14:06.131Z,7.28
2023-07-08T19:16:41.059Z,6.93
2023-07-08T19:19:14.522Z,7.15
2023-07-08T19:21:47.757Z,7.04
2023-07-08T19:24:36.111Z,7.53
2023-07-08T19:27:17.085Z,7.19
2023-07-08T19:29:49.993Z,7.60
2023-07-08T19:32:24.952Z,7.76
2023-07-08T19:34:57.221Z,7.51
2023-07-08T19:37:29.502Z,7.76
2023-07-08T19:40:01.848Z,8.21
2023-07-08T19:42:34.355Z,8.28
2023-07-08T19:45:06.732Z,8.36
2023-07-08T19:47:41.709Z,8.71
2023-07-08T19:50:15.033Z,8.77
2023-07-08T19:52:48.017Z,8.40
2023-07-08T19:55:21.222Z,8.79
2023-07-08T19:57:56.844Z,8.94
2023-07-08T20:00:32.689Z,8.51
2023-07-08T20:03:08.543Z,8.71
2023-07-08T20:05:41.386Z,8.88
2023-07-08T20:08:32.788Z,8.84
2023-07-08T20:11:05.137Z,8.18
2023-07-08T20:13:38.778Z,9.16
2023-07-08T20:16:24.095Z,8.88
2023-07-08T20:19:07.218Z,9.21
2023-07-08T20:21:39.449Z,9.17
2023-07-08T20:24:13.601Z,8.60
2023-07-08T20:26:48.546Z,8.91
2023-07-08T20:29:22.214Z,8.74
2023-07-08T20:31:54.578Z,8.61
2023-07-08T20:34:29.534Z,9.00
2023-07-08T20:37:02.043Z,9.30
2023-07-08T20:39:34.289Z,8.89
2023-07-08T20:42:07.695Z,8.61
2023-07-08T20:44:42.256Z,9.16
2023-07-08T20:47:20.242Z,9.24
2023-07-08T20:49:55.220Z,9.21
2023-07-08T20:52:27.516Z,9.31
2023-07-08T20:54:59.919Z,9.16
2023-07-08T20:57:32.225Z,9.66
2023-07-08T21:00:04.580Z,9.82
2023-07-08T21:02:36.937Z,9.31
2023-07-08T21:05:12.022Z,9.21
2023-07-08T21:07:46.453Z,8.96
2023-07-08T21:10:21.302Z,9.06
2023-07-08T21:12:54.625Z,9.49
2023-07-08T21:15:37.761Z,9.61
2023-07-08T21:18:15.860Z,8.83
2023-07-08T21:20:54.072Z,8.98
2023-07-08T21:23:26.755Z,9.51
2023-07-08T21:26:00.328Z,9.66
2023-07-08T21:28:38.592Z,9.42
2023-07-08T21:31:11.826Z,9.73
2023-07-08T21:33:44.325Z,9.49
2023-07-08T21:36:28.420Z,9.38
2023-07-08T21:39:06.420Z,11.85
2023-07-08T21:41:38.773Z,21.22
2023-07-08T21:44:12.355Z,22.69
2023-07-08T21:46:44.751Z,17.46
2023-07-08T21:49:17.249Z,13.16
2023-07-08T21:51:53.861Z,10.67
2023-07-08T21:54:26.218Z,10.11
2023-07-08T21:56:58.700Z,9.28
2023-07-08T21:59:31.013Z,9.76
2023-07-08T22:02:03.356Z,10.19
2023-07-08T22:04:43.225Z,10.50
2023-07-08T22:07:21.057Z,10.55
2023-07-08T22:09:53.382Z,10.46
2023-07-08T22:12:26.710Z,10.69
2023-07-08T22:15:05.164Z,10.55
2023-07-08T22:17:37.632Z,11.01
2023-07-08T22:20:11.727Z,10.49
2023-07-08T22:22:46.683Z,10.90
2023-07-08T22:25:24.765Z,10.85
2023-07-08T22:27:57.371Z,11.05
2023-07-08T22:30:29.767Z,11.09
2023-07-08T22:33:02.097Z,11.21
2023-07-08T22:35:34.620Z,11.80
2023-07-08T22:38:10.182Z,11.76
2023-07-08T22:40:46.793Z,11.49
2023-07-08T22:43:26.548Z,11.53
2023-07-08T22:45:59.358Z,11.36
2023-07-08T22:48:32.318Z,11.78
2023-07-08T22:51:05.570Z,11.89
2023-07-08T22:53:42.895Z,11.51
2023-07-08T22:56:21.608Z,11.87
2023-07-08T22:58:54.069Z,12.26
2023-07-08T23:01:26.431Z,12.69
2023-07-08T23:03:58.879Z,13.13
2023-07-08T23:06:32.737Z,12.59
2023-07-08T23:09:07.955Z,13.56
2023-07-08T23:11:42.406Z,13.83
2023-07-08T23:14:15.961Z,13.68
2023-07-08T23:16:48.490Z,14.00
2023-07-08T23:19:21.159Z,14.51
2023-07-08T23:21:53.436Z,14.11
2023-07-08T23:24:28.474Z,14.09
2023-07-08T23:27:00.889Z,14.42
2023-07-08T23:29:33.240Z,14.51
2023-07-08T23:32:06.067Z,15.13
2023-07-08T23:34:38.880Z,14.75
2023-07-08T23:37:17.490Z,14.97
2023-07-08T23:39:52.455Z,14.50
2023-07-08T23:42:24.723Z,14.68
2023-07-08T23:44:58.030Z,15.14
2023-07-08T23:47:32.016Z,15.00
2023-07-08T23:50:04.914Z,14.77
2023-07-08T23:52:37.247Z,15.77
2023-07-08T23:55:13.850Z,16.46
2023-07-08T23:57:46.759Z,15.77
